createdAt,value
2019-03-30T00:05:56.767Z,-0.89
2019-03-30T00:08:23.383Z,-0.80
2019-03-30T00:10:49.620Z,-0.72
2019-03-30T00:13:15.848Z,-0.67
2019-03-30T00:15:42.089Z,-0.67
2019-03-30T00:18:08.329Z,-0.50
2019-03-30T00:20:34.560Z,-0.48
2019-03-30T00:23:00.784Z,-0.47
2019-03-30T00:25:27.015Z,-0.47
2019-03-30T00:27:53.239Z,-0.43
2019-03-30T00:30:19.489Z,-0.38
2019-03-30T00:32:45.699Z,-0.13
2019-03-30T00:35:11.936Z,0.14
2019-03-30T00:37:38.162Z,0.20
2019-03-30T00:40:45.703Z,0.17
2019-03-30T00:43:11.936Z,0.16
2019-03-30T00:45:38.194Z,0.35
2019-03-30T00:48:04.420Z,0.41
2019-03-30T00:50:30.659Z,0.38
2019-03-30T00:52:56.884Z,0.43
2019-03-30T00:55:23.122Z,0.56
2019-03-30T00:57:49.337Z,0.55
2019-03-30T01:00:56.880Z,0.42
2019-03-30T01:03:23.113Z,0.45
2019-03-30T01:05:49.349Z,0.53
2019-03-30T01:08:15.573Z,0.55
2019-03-30T01:10:41.813Z,0.55
2019-03-30T01:13:08.035Z,0.56
2019-03-30T01:15:34.275Z,0.64
2019-03-30T01:18:00.498Z,0.63
2019-03-30T01:20:26.721Z,0.64
2019-03-30T01:22:52.968Z,0.61
2019-03-30T01:25:19.191Z,0.61
2019-03-30T01:27:45.433Z,0.60
2019-03-30T01:30:22.467Z,0.66
2019-03-30T01:32:39.995Z,0.61
2019-03-30T01:38:19.900Z,0.65
2019-03-30T01:40:46.133Z,0.62
2019-03-30T01:43:12.399Z,0.66
2019-03-30T01:45:38.631Z,0.76
2019-03-30T01:48:04.858Z,0.77
2019-03-30T01:50:31.093Z,0.71
2019-03-30T01:52:57.335Z,0.74
2019-03-30T01:55:23.563Z,0.76
2019-03-30T01:57:49.815Z,0.86
2019-03-30T02:03:30.086Z,0.92
2019-03-30T02:05:56.312Z,0.87
2019-03-30T02:08:22.551Z,0.77
2019-03-30T02:10:48.781Z,0.83
2019-03-30T02:13:15.209Z,0.84
2019-03-30T02:15:41.454Z,0.71
2019-03-30T02:18:07.699Z,0.71
2019-03-30T02:20:53.686Z,0.77
2019-03-30T02:23:19.925Z,0.91
2019-03-30T02:25:46.143Z,0.85
2019-03-30T02:28:12.381Z,0.83
2019-03-30T02:30:38.704Z,0.79
2019-03-30T02:33:04.946Z,0.83
2019-03-30T02:35:31.168Z,0.90
2019-03-30T02:37:57.456Z,0.86
2019-03-30T02:40:23.676Z,0.96
2019-03-30T02:42:49.917Z,1.06
2019-03-30T02:45:16.167Z,1.05
2019-03-30T02:47:42.377Z,1.05
2019-03-30T02:50:08.618Z,0.94
2019-03-30T02:52:34.840Z,1.01
2019-03-30T02:55:01.073Z,1.16
2019-03-30T02:57:27.297Z,1.14
2019-03-30T02:59:53.539Z,1.16
2019-03-30T03:02:19.756Z,1.10
2019-03-30T03:04:45.987Z,1.26
2019-03-30T03:07:12.212Z,1.19
2019-03-30T03:09:38.455Z,1.18
2019-03-30T03:15:12.130Z,1.33
2019-03-30T03:17:38.350Z,1.39
2019-03-30T03:20:24.334Z,1.34
2019-03-30T03:22:50.555Z,1.34
2019-03-30T03:25:16.795Z,1.32
2019-03-30T03:27:43.017Z,1.19
2019-03-30T03:30:09.560Z,1.24
2019-03-30T03:32:35.805Z,1.18
2019-03-30T03:35:02.293Z,1.12
2019-03-30T03:37:43.625Z,1.16
2019-03-30T03:39:56.700Z,1.17
2019-03-30T03:42:22.930Z,1.21
2019-03-30T03:44:49.192Z,1.18
2019-03-30T03:47:15.416Z,1.24
2019-03-30T03:49:41.637Z,1.34
2019-03-30T03:52:07.878Z,1.28
2019-03-30T03:54:34.107Z,1.26
2019-03-30T03:57:41.651Z,1.16
2019-03-30T04:12:12.336Z,1.15
2019-03-30T04:15:19.862Z,1.11
2019-03-30T04:17:46.112Z,0.99
2019-03-30T04:23:26.511Z,0.91
2019-03-30T04:25:52.731Z,0.91
2019-03-30T04:28:18.992Z,0.85
2019-03-30T04:30:45.209Z,0.84
2019-03-30T04:33:11.452Z,0.82
2019-03-30T04:35:37.682Z,0.79
2019-03-30T04:38:03.919Z,0.81
2019-03-30T04:40:30.151Z,0.86
2019-03-30T04:42:56.419Z,0.84
2019-03-30T04:45:22.661Z,0.89
2019-03-30T04:47:48.997Z,0.91
2019-03-30T04:50:15.219Z,0.99
2019-03-30T04:52:41.461Z,1.00
2019-03-30T04:55:07.787Z,1.02
2019-03-30T04:57:34.027Z,1.06
2019-03-30T05:00:00.409Z,1.11
2019-03-30T05:02:26.675Z,1.14
2019-03-30T05:04:52.908Z,1.11
2019-03-30T05:07:19.128Z,1.11
2019-03-30T05:09:45.376Z,1.11
2019-03-30T05:15:18.956Z,1.43
2019-03-30T05:17:47.937Z,1.72
2019-03-30T05:20:13.322Z,1.98
2019-03-30T05:22:47.008Z,2.27
2019-03-30T05:25:13.261Z,2.60
2019-03-30T05:27:39.484Z,2.84
2019-03-30T05:30:47.031Z,3.18
2019-03-30T05:33:13.256Z,3.46
2019-03-30T05:35:39.502Z,3.70
2019-03-30T05:38:05.747Z,3.96
2019-03-30T05:40:31.976Z,4.20
2019-03-30T05:42:58.194Z,4.31
2019-03-30T05:45:24.447Z,4.45
2019-03-30T05:47:50.671Z,4.58
2019-03-30T05:50:16.911Z,4.77
2019-03-30T05:52:43.138Z,4.95
2019-03-30T05:58:03.583Z,5.34
2019-03-30T06:00:29.828Z,5.44
2019-03-30T06:02:56.063Z,5.58
2019-03-30T06:05:22.301Z,5.51
2019-03-30T06:07:48.527Z,5.67
2019-03-30T06:10:14.771Z,5.83
2019-03-30T06:12:40.987Z,5.76
2019-03-30T06:18:01.278Z,6.35
2019-03-30T06:20:27.587Z,6.73
2019-03-30T06:22:53.842Z,6.92
2019-03-30T06:25:20.077Z,7.00
2019-03-30T06:27:46.318Z,7.00
2019-03-30T06:30:53.850Z,7.08
2019-03-30T06:33:20.093Z,7.24
2019-03-30T06:35:46.335Z,7.49
2019-03-30T06:38:12.555Z,7.38
2019-03-30T06:40:38.792Z,7.57
2019-03-30T06:43:07.584Z,7.50
2019-03-30T06:45:33.167Z,7.65
2019-03-30T06:47:59.406Z,7.93
2019-03-30T06:50:25.627Z,7.95
2019-03-30T06:52:58.069Z,7.98
2019-03-30T06:55:20.012Z,8.12
2019-03-30T06:57:46.249Z,8.16
2019-03-30T07:00:53.792Z,7.97
2019-03-30T07:06:39.348Z,8.24
2019-03-30T07:09:05.566Z,8.24
2019-03-30T07:20:34.127Z,8.54
2019-03-30T07:23:11.260Z,8.72
2019-03-30T07:25:28.520Z,8.91
2019-03-30T07:27:54.742Z,9.19
2019-03-30T07:30:20.964Z,9.24
2019-03-30T07:32:47.211Z,9.20
2019-03-30T07:35:13.431Z,9.38
2019-03-30T07:37:39.677Z,9.18
2019-03-30T07:40:05.899Z,9.37
2019-03-30T07:42:32.144Z,9.35
2019-03-30T07:44:58.384Z,9.49
2019-03-30T07:47:24.704Z,9.64
2019-03-30T07:49:50.960Z,9.72
2019-03-30T07:52:17.185Z,9.80
2019-03-30T07:54:43.419Z,9.76
2019-03-30T07:57:16.834Z,10.08
2019-03-30T07:59:37.795Z,9.68
2019-03-30T08:02:04.019Z,9.50
2019-03-30T08:04:30.271Z,9.76
2019-03-30T08:06:56.486Z,9.62
2019-03-30T08:09:22.720Z,10.58
2019-03-30T08:11:48.952Z,10.78
2019-03-30T08:14:15.189Z,10.41
2019-03-30T08:16:41.413Z,10.77
2019-03-30T08:19:07.668Z,10.99
2019-03-30T08:21:33.893Z,10.58
2019-03-30T08:24:00.134Z,10.58
2019-03-30T08:26:26.354Z,10.74
2019-03-30T08:28:52.596Z,10.58
2019-03-30T08:31:18.833Z,10.51
2019-03-30T08:33:45.073Z,10.53
2019-03-30T08:36:11.287Z,10.22
2019-03-30T08:38:37.530Z,10.20
2019-03-30T08:41:03.760Z,10.73
2019-03-30T08:43:29.987Z,10.63
2019-03-30T08:45:56.239Z,10.89
2019-03-30T08:48:22.467Z,11.17
2019-03-30T08:50:48.708Z,11.10
2019-03-30T08:53:14.929Z,11.20
2019-03-30T08:55:41.164Z,10.73
2019-03-30T08:58:07.400Z,10.70
2019-03-30T09:00:53.389Z,10.98
2019-03-30T09:03:19.637Z,11.06
2019-03-30T09:05:45.879Z,11.10
2019-03-30T09:08:12.122Z,11.00
2019-03-30T09:10:38.363Z,10.79
2019-03-30T09:13:04.585Z,10.47
2019-03-30T09:15:30.831Z,10.12
2019-03-30T09:17:57.050Z,10.24
2019-03-30T09:20:23.299Z,10.57
2019-03-30T09:22:49.524Z,10.75
2019-03-30T09:25:15.769Z,10.79
2019-03-30T09:27:41.990Z,10.81
2019-03-30T09:30:49.542Z,11.02
2019-03-30T09:33:15.762Z,10.95
2019-03-30T09:35:42.009Z,10.93
2019-03-30T09:38:08.234Z,10.56
2019-03-30T09:40:34.474Z,10.33
2019-03-30T09:43:00.695Z,10.31
2019-03-30T09:45:26.946Z,10.49
2019-03-30T09:47:53.183Z,10.70
2019-03-30T09:50:19.445Z,10.65
2019-03-30T09:52:45.666Z,10.75
2019-03-30T09:55:11.994Z,11.01
2019-03-30T09:57:38.232Z,10.84
2019-03-30T10:03:06.284Z,10.94
2019-03-30T10:05:33.132Z,10.37
2019-03-30T10:07:59.375Z,10.26
2019-03-30T10:10:25.607Z,10.63
2019-03-30T10:12:51.831Z,10.79
2019-03-30T10:15:18.063Z,11.04
2019-03-30T10:17:44.299Z,11.23
2019-03-30T10:20:10.619Z,11.25
2019-03-30T10:22:36.992Z,10.90
2019-03-30T10:28:16.850Z,10.57
2019-03-30T10:30:43.081Z,10.63
2019-03-30T10:33:09.319Z,10.81
2019-03-30T10:35:35.546Z,10.73
2019-03-30T10:38:01.786Z,10.99
2019-03-30T10:40:28.004Z,10.73
2019-03-30T10:42:54.242Z,10.77
2019-03-30T10:45:20.472Z,10.67
2019-03-30T10:47:46.720Z,10.74
2019-03-30T10:50:13.043Z,10.89
2019-03-30T10:52:39.277Z,10.80
2019-03-30T10:58:19.227Z,10.48
2019-03-30T11:00:45.456Z,10.79
2019-03-30T11:03:11.796Z,10.92
2019-03-30T11:05:38.018Z,10.97
2019-03-30T11:08:45.557Z,10.88
2019-03-30T11:11:11.788Z,10.80
2019-03-30T11:13:38.096Z,10.86
2019-03-30T11:16:04.324Z,10.60
2019-03-30T11:18:30.563Z,10.53
2019-03-30T11:20:56.791Z,10.54
2019-03-30T11:23:23.039Z,10.45
2019-03-30T11:25:49.279Z,10.49
2019-03-30T11:28:15.511Z,10.19
2019-03-30T11:30:41.746Z,9.76
2019-03-30T11:33:07.989Z,9.84
2019-03-30T11:35:34.213Z,9.80
2019-03-30T11:38:00.500Z,10.00
2019-03-30T11:40:26.725Z,10.15
2019-03-30T11:42:52.965Z,10.10
2019-03-30T11:45:19.202Z,9.83
2019-03-30T11:47:45.434Z,10.08
2019-03-30T11:50:11.673Z,10.43
2019-03-30T11:52:37.891Z,10.74
2019-03-30T11:55:45.427Z,10.38
2019-03-30T11:58:11.671Z,9.86
2019-03-30T12:00:37.901Z,10.30
2019-03-30T12:03:04.126Z,10.52
2019-03-30T12:05:30.369Z,10.61
2019-03-30T12:07:56.595Z,10.80
2019-03-30T12:10:22.831Z,10.98
2019-03-30T12:12:49.052Z,10.97
2019-03-30T12:15:15.320Z,11.35
2019-03-30T12:17:41.546Z,11.23
2019-03-30T12:20:49.091Z,10.88
2019-03-30T12:23:15.316Z,10.83
2019-03-30T12:25:41.550Z,10.63
2019-03-30T12:28:07.780Z,10.28
2019-03-30T12:30:34.014Z,10.51
2019-03-30T12:33:00.238Z,10.41
2019-03-30T12:35:26.480Z,10.33
2019-03-30T12:37:52.694Z,9.97
2019-03-30T12:40:18.938Z,9.57
2019-03-30T12:42:45.164Z,9.40
2019-03-30T12:48:05.507Z,9.06
2019-03-30T12:50:31.732Z,9.37
2019-03-30T12:52:58.169Z,9.25
2019-03-30T12:55:24.405Z,9.19
2019-03-30T12:58:31.956Z,9.31
2019-03-30T13:00:58.191Z,9.27
2019-03-30T13:03:24.444Z,9.19
2019-03-30T13:05:50.671Z,9.04
2019-03-30T13:08:16.900Z,8.83
2019-03-30T13:10:45.428Z,8.60
2019-03-30T13:13:11.362Z,8.29
2019-03-30T13:15:37.606Z,8.07
2019-03-30T13:18:03.832Z,8.01
2019-03-30T13:20:30.076Z,7.92
2019-03-30T13:22:56.364Z,7.78
2019-03-30T13:25:22.634Z,7.73
2019-03-30T13:27:48.876Z,7.72
2019-03-30T13:33:09.287Z,7.73
2019-03-30T13:35:35.519Z,7.72
2019-03-30T13:38:01.756Z,7.44
2019-03-30T13:40:27.983Z,7.33
2019-03-30T13:42:54.219Z,7.51
2019-03-30T13:45:20.460Z,7.63
2019-03-30T13:47:46.718Z,7.61
2019-03-30T13:50:13.070Z,7.45
2019-03-30T13:52:39.297Z,7.36
2019-03-30T13:58:19.401Z,7.36
2019-03-30T14:00:45.628Z,7.33
2019-03-30T14:03:11.875Z,7.13
2019-03-30T14:05:38.101Z,7.01
2019-03-30T14:08:04.338Z,6.99
2019-03-30T14:10:30.561Z,7.01
2019-03-30T14:12:56.794Z,6.90
2019-03-30T14:15:23.020Z,6.90
2019-03-30T14:17:49.261Z,6.94
2019-03-30T14:20:15.477Z,6.82
2019-03-30T14:22:41.720Z,6.79
2019-03-30T14:28:21.379Z,6.76
2019-03-30T14:30:47.607Z,6.61
2019-03-30T14:33:13.858Z,6.55
2019-03-30T14:36:22.421Z,6.54
2019-03-30T14:38:48.668Z,6.45
2019-03-30T14:41:14.900Z,6.33
2019-03-30T14:43:41.139Z,6.27
2019-03-30T14:46:07.417Z,6.20
2019-03-30T14:48:33.658Z,6.10
2019-03-30T14:50:59.875Z,6.19
2019-03-30T14:53:26.147Z,6.20
2019-03-30T14:55:52.379Z,6.13
2019-03-30T14:58:18.597Z,6.07
2019-03-30T15:00:44.819Z,5.99
2019-03-30T15:03:11.059Z,5.82
2019-03-30T15:05:37.302Z,5.62
2019-03-30T15:08:03.522Z,5.55
2019-03-30T15:10:29.759Z,5.55
2019-03-30T15:12:55.989Z,5.49
2019-03-30T15:15:22.226Z,5.47
2019-03-30T15:17:48.442Z,5.40
2019-03-30T15:20:14.688Z,5.36
2019-03-30T15:22:40.910Z,5.28
2019-03-30T15:25:28.701Z,5.19
2019-03-30T15:27:54.948Z,5.15
2019-03-30T15:30:21.190Z,5.04
2019-03-30T15:33:28.715Z,4.97
2019-03-30T15:35:54.982Z,4.94
2019-03-30T15:38:22.804Z,4.91
2019-03-30T15:40:49.382Z,4.94
2019-03-30T15:43:15.613Z,4.88
2019-03-30T15:45:41.871Z,4.85
2019-03-30T15:48:08.092Z,4.90
2019-03-30T15:50:34.341Z,4.89
2019-03-30T15:53:00.563Z,4.79
2019-03-30T15:55:26.800Z,4.72
2019-03-30T15:57:53.024Z,4.62
2019-03-30T16:00:19.273Z,4.54
2019-03-30T16:02:45.508Z,4.46
2019-03-30T16:08:06.106Z,4.23
2019-03-30T16:10:32.344Z,4.16
2019-03-30T16:12:58.575Z,4.25
2019-03-30T16:15:24.868Z,4.26
2019-03-30T16:17:51.094Z,4.18
2019-03-30T16:20:17.328Z,4.15
2019-03-30T16:23:24.861Z,3.98
2019-03-30T16:25:51.110Z,3.85
2019-03-30T16:28:17.339Z,3.65
2019-03-30T16:30:43.584Z,3.54
2019-03-30T16:33:09.800Z,3.54
2019-03-30T16:35:36.026Z,3.52
2019-03-30T16:38:02.265Z,3.42
2019-03-30T16:40:28.592Z,3.34
2019-03-30T16:42:54.829Z,3.37
2019-03-30T16:45:21.047Z,3.25
2019-03-30T16:47:47.300Z,3.18
2019-03-30T16:53:26.996Z,3.02
2019-03-30T16:55:53.225Z,2.92
2019-03-30T16:58:19.462Z,2.83
2019-03-30T17:00:56.273Z,2.82
2019-03-30T17:03:13.968Z,2.78
2019-03-30T17:05:40.193Z,2.70
2019-03-30T17:08:06.437Z,2.64
2019-03-30T17:10:32.667Z,2.56
2019-03-30T17:12:58.908Z,2.52
2019-03-30T17:15:25.127Z,2.47
2019-03-30T17:17:51.375Z,2.41
2019-03-30T17:20:17.600Z,2.33
2019-03-30T17:22:43.834Z,2.24
2019-03-30T17:25:10.059Z,2.18
2019-03-30T17:27:36.312Z,2.08
2019-03-30T17:30:43.838Z,2.00
2019-03-30T17:33:10.107Z,1.88
2019-03-30T17:35:36.359Z,1.75
2019-03-30T17:38:02.591Z,1.68
2019-03-30T17:40:28.811Z,1.61
2019-03-30T17:42:55.055Z,1.49
2019-03-30T17:45:22.304Z,1.39
2019-03-30T17:47:48.551Z,1.31
2019-03-30T17:50:14.886Z,1.22
2019-03-30T17:52:41.102Z,1.13
2019-03-30T17:55:48.645Z,1.04
2019-03-30T17:58:14.894Z,0.92
2019-03-30T18:00:41.128Z,0.78
2019-03-30T18:03:07.454Z,0.68
2019-03-30T18:05:33.763Z,0.58
2019-03-30T18:08:01.802Z,0.53
2019-03-30T18:10:28.200Z,0.42
2019-03-30T18:12:54.429Z,0.34
2019-03-30T18:15:20.664Z,0.23
2019-03-30T18:17:46.885Z,0.17
2019-03-30T18:20:13.236Z,0.13
2019-03-30T18:23:20.779Z,0.09
2019-03-30T18:25:47.034Z,0.06
2019-03-30T18:28:26.624Z,-0.01
2019-03-30T18:30:41.478Z,-0.07
2019-03-30T18:33:07.706Z,-0.15
2019-03-30T18:35:34.028Z,-0.22
2019-03-30T18:38:41.579Z,-0.25
2019-03-30T18:41:07.816Z,-0.30
2019-03-30T18:43:34.048Z,-0.39
2019-03-30T18:46:00.291Z,-0.46
2019-03-30T18:48:26.521Z,-0.54
2019-03-30T18:50:52.778Z,-0.61
2019-03-30T18:53:19.030Z,-0.67
2019-03-30T18:55:45.272Z,-0.72
2019-03-30T18:58:11.511Z,-0.79
2019-03-30T19:00:37.758Z,-0.92
2019-03-30T19:06:17.183Z,-1.10
2019-03-30T19:08:43.476Z,-1.17
2019-03-30T19:11:09.768Z,-1.21
2019-03-30T19:13:35.994Z,-1.26
2019-03-30T19:16:02.254Z,-1.32
2019-03-30T19:18:28.485Z,-1.47
2019-03-30T19:20:54.743Z,-1.39
2019-03-30T19:23:20.975Z,-1.40
2019-03-30T19:25:47.212Z,-1.45
2019-03-30T19:28:13.442Z,-1.45
2019-03-30T19:30:42.181Z,-1.48
2019-03-30T19:33:07.807Z,-1.53
2019-03-30T19:35:34.061Z,-1.57
2019-03-30T19:38:00.280Z,-1.58
2019-03-30T19:40:26.520Z,-1.55
2019-03-30T19:42:52.771Z,-1.57
2019-03-30T19:45:18.992Z,-1.59
2019-03-30T19:47:45.258Z,-1.64
2019-03-30T19:53:25.346Z,-1.65
2019-03-30T19:55:51.619Z,-1.65
2019-03-30T19:58:17.860Z,-1.70
2019-03-30T20:00:44.088Z,-1.74
2019-03-30T20:03:10.329Z,-1.77
2019-03-30T20:05:36.555Z,-1.82
2019-03-30T20:08:11.868Z,-1.85
2019-03-30T20:10:31.145Z,-1.89
2019-03-30T20:12:57.402Z,-1.87
2019-03-30T20:15:23.624Z,-1.85
2019-03-30T20:17:49.863Z,-1.85
2019-03-30T20:20:16.093Z,-1.85
2019-03-30T20:22:42.340Z,-1.89
2019-03-30T20:25:08.562Z,-1.85
2019-03-30T20:27:34.798Z,-1.85
2019-03-30T20:30:01.035Z,-1.75
2019-03-30T20:32:27.279Z,-1.77
2019-03-30T20:34:53.505Z,-1.82
2019-03-30T20:37:19.738Z,-1.85
2019-03-30T20:39:45.973Z,-1.92
2019-03-30T20:42:12.207Z,-1.96
2019-03-30T20:44:38.456Z,-1.94
2019-03-30T20:47:04.752Z,-1.96
2019-03-30T20:49:30.933Z,-1.78
2019-03-30T20:51:57.172Z,-1.78
2019-03-30T20:54:23.409Z,-1.83
2019-03-30T20:56:49.639Z,-1.89
2019-03-30T20:59:15.878Z,-1.94
2019-03-30T21:01:42.103Z,-1.97
2019-03-30T21:04:08.344Z,-1.99
2019-03-30T21:06:34.573Z,-2.00
2019-03-30T21:09:00.817Z,-2.00
2019-03-30T21:11:27.066Z,-2.12
2019-03-30T21:13:56.645Z,-2.28
2019-03-30T21:16:21.458Z,-2.37
2019-03-30T21:18:47.744Z,-2.40
2019-03-30T21:21:13.940Z,-2.44
2019-03-30T21:23:40.186Z,-2.49
2019-03-30T21:26:06.430Z,-2.53
2019-03-30T21:28:32.660Z,-2.58
2019-03-30T21:30:58.922Z,-2.61
2019-03-30T21:33:25.250Z,-2.64
2019-03-30T21:35:51.501Z,-2.67
2019-03-30T21:38:17.732Z,-2.72
2019-03-30T21:40:43.969Z,-2.78
2019-03-30T21:43:10.218Z,-2.84
2019-03-30T21:45:36.447Z,-2.91
2019-03-30T21:48:44.027Z,-2.99
2019-03-30T21:51:10.272Z,-3.04
2019-03-30T21:53:36.512Z,-3.06
2019-03-30T21:56:02.782Z,-3.12
2019-03-30T21:58:29.011Z,-3.20
2019-03-30T22:00:55.255Z,-3.24
2019-03-30T22:03:21.497Z,-3.28
2019-03-30T22:05:47.766Z,-3.31
2019-03-30T22:08:17.058Z,-3.37
2019-03-30T22:10:42.151Z,-3.44
2019-03-30T22:13:08.377Z,-3.47
2019-03-30T22:15:34.631Z,-3.53
2019-03-30T22:18:00.864Z,-3.55
2019-03-30T22:20:27.095Z,-3.57
2019-03-30T22:22:53.333Z,-3.60
2019-03-30T22:25:19.555Z,-3.65
2019-03-30T22:27:45.798Z,-3.69
2019-03-30T22:33:19.675Z,-3.72
2019-03-30T22:35:45.923Z,-3.79
2019-03-30T22:38:12.172Z,-3.84
2019-03-30T22:40:41.261Z,-3.87
2019-03-30T22:43:06.548Z,-3.92
2019-03-30T22:45:32.779Z,-3.92
2019-03-30T22:47:59.031Z,-3.92
2019-03-30T22:50:25.256Z,-3.93
2019-03-30T22:52:51.508Z,-3.93
2019-03-30T22:55:17.751Z,-3.93
2019-03-30T22:57:43.999Z,-3.93
2019-03-30T23:03:23.452Z,-3.96
2019-03-30T23:05:49.681Z,-4.02
2019-03-30T23:08:15.919Z,-4.08
2019-03-30T23:10:42.148Z,-4.11
2019-03-30T23:13:08.387Z,-4.12
2019-03-30T23:15:34.612Z,-4.12
2019-03-30T23:20:54.551Z,-4.23
2019-03-30T23:23:20.794Z,-4.31
2019-03-30T23:25:47.019Z,-4.35
2019-03-30T23:28:13.266Z,-4.39
2019-03-30T23:30:53.229Z,-4.41
2019-03-30T23:33:07.656Z,-4.42
2019-03-30T23:35:33.900Z,-4.44
2019-03-30T23:38:00.142Z,-4.44
2019-03-30T23:40:26.371Z,-4.46
2019-03-30T23:42:52.617Z,-4.50
2019-03-30T23:45:18.869Z,-4.48
2019-03-30T23:47:45.133Z,-4.51
2019-03-30T23:50:11.471Z,-4.57
2019-03-30T23:52:37.694Z,-4.59
2019-03-30T23:55:23.690Z,-4.63
2019-03-30T23:57:49.932Z,-4.65
